Time,TemperatureF,DewpointF,PressureIn,WindDirection,WindDirectionDegrees,WindSpeedMPH,WindSpeedGustMPH,Humidity,HourlyPrecipIn,Conditions,Clouds,dailyrainin,SoftwareType,DateUTC
2013-06-22 00:00:00,81.3,68.4,29.77,SSE,163,16.0,16.0,65,0.00,,,0.00,Wunderground v.1.15,2013-06-22 05:00:00,
2013-06-22 00:05:00,81.2,68.8,29.77,SSE,165,15.0,27.0,66,0.00,,,0.00,Wunderground v.1.15,2013-06-22 05:05:00,
2013-06-22 00:10:00,81.0,69.0,29.77,SSE,164,15.0,15.0,67,0.00,,,0.00,Wunderground v.1.15,2013-06-22 05:10:00,
2013-06-22 00:15:00,80.8,68.8,29.77,SSE,167,15.0,21.0,67,0.00,,,0.00,Wunderground v.1.15,2013-06-22 05:15:00,
2013-06-22 00:25:00,80.6,69.1,29.77,SSE,158,14.0,27.0,68,0.00,,,0.00,Wunderground v.1.15,2013-06-22 05:25:00,
2013-06-22 00:30:00,80.5,69.4,29.77,SSE,167,15.0,15.0,69,0.00,,,0.00,Wunderground v.1.15,2013-06-22 05:30:00,
2013-06-22 00:35:00,80.5,69.4,29.77,SSE,158,15.0,27.0,69,0.00,,,0.00,Wunderground v.1.15,2013-06-22 05:35:00,
2013-06-22 00:40:00,80.3,69.2,29.78,SSE,165,14.0,14.0,69,0.00,,,0.00,Wunderground v.1.15,2013-06-22 05:40:00,
2013-06-22 00:45:00,80.4,69.3,29.79,SSE,167,12.0,27.0,69,0.00,,,0.00,Wunderground v.1.15,2013-06-22 05:45:00,
2013-06-22 00:55:00,80.3,69.6,29.79,South,174,10.0,27.0,70,0.00,,,0.00,Wunderground v.1.15,2013-06-22 05:55:00,
2013-06-22 01:00:00,80.3,69.6,29.80,South,181,9.0,27.0,70,0.00,,,0.00,Wunderground v.1.15,2013-06-22 06:00:00,
2013-06-22 01:05:00,80.4,69.7,29.80,SSW,199,9.0,27.0,70,0.00,,,0.00,Wunderground v.1.15,2013-06-22 06:05:00,
2013-06-22 01:15:00,80.0,69.7,29.81,WSW,238,8.0,27.0,71,0.00,,,0.00,Wunderground v.1.15,2013-06-22 06:15:00,
2013-06-22 01:20:00,79.8,69.6,29.82,SW,217,7.0,7.0,71,0.00,,,0.00,Wunderground v.1.15,2013-06-22 06:20:00,
2013-06-22 01:25:00,79.8,70.0,29.83,West,261,7.0,10.0,72,0.00,,,0.00,Wunderground v.1.15,2013-06-22 06:25:00,
2013-06-22 01:30:00,79.4,69.6,29.85,NW,324,11.0,27.0,72,0.00,,,0.00,Wunderground v.1.15,2013-06-22 06:30:00,
2013-06-22 01:40:00,76.0,58.7,29.86,WNW,289,17.0,17.0,55,0.00,,,0.00,Wunderground v.1.15,2013-06-22 06:40:00,
2013-06-22 01:45:00,74.7,58.5,29.87,WNW,296,14.0,27.0,57,0.00,,,0.00,Wunderground v.1.15,2013-06-22 06:45:00,
2013-06-22 01:50:00,73.9,58.7,29.87,NW,320,11.0,27.0,59,0.00,,,0.00,Wunderground v.1.15,2013-06-22 06:50:00,
2013-06-22 01:55:00,72.9,59.1,29.88,NNW,329,12.0,27.0,62,0.00,,,0.00,Wunderground v.1.15,2013-06-22 06:55:00,
2013-06-22 02:05:00,71.6,59.6,29.85,NNE,17,9.0,12.0,66,0.00,,,0.00,Wunderground v.1.15,2013-06-22 07:05:00,
2013-06-22 02:10:00,70.8,60.1,29.85,NNE,13,9.0,27.0,69,0.00,,,0.00,Wunderground v.1.15,2013-06-22 07:10:00,
2013-06-22 02:15:00,70.5,60.2,29.85,NNE,12,9.0,27.0,70,0.00,,,0.00,Wunderground v.1.15,2013-06-22 07:15:00,
2013-06-22 02:25:00,70.2,60.7,29.85,NNE,20,8.0,9.0,72,0.00,,,0.00,Wunderground v.1.15,2013-06-22 07:25:00,
2013-06-22 02:30:00,70.1,61.0,29.84,NE,45,9.0,27.0,73,0.00,,,0.00,Wunderground v.1.15,2013-06-22 07:30:00,
2013-06-22 02:35:00,69.8,61.1,29.84,NNE,22,8.0,27.0,74,0.00,,,0.00,Wunderground v.1.15,2013-06-22 07:35:00,
2013-06-22 02:45:00,69.3,61.4,29.83,ENE,64,9.0,27.0,76,0.00,,,0.00,Wunderground v.1.15,2013-06-22 07:45:00,
2013-06-22 02:50:00,69.3,61.4,29.83,East,91,9.0,9.0,76,0.00,,,0.00,Wunderground v.1.15,2013-06-22 07:50:00,
2013-06-22 02:55:00,69.3,61.4,29.83,East,97,9.0,27.0,76,0.00,,,0.00,Wunderground v.1.15,2013-06-22 07:55:00,
2013-06-22 03:04:00,69.4,61.1,29.82,ENE,67,9.0,27.0,75,0.00,,,0.00,Wunderground v.1.15,2013-06-22 08:04:00,
2013-06-22 03:10:00,69.3,60.7,29.81,East,94,11.0,11.0,74,0.00,,,0.00,Wunderground v.1.15,2013-06-22 08:10:00,
2013-06-22 03:15:00,69.2,60.9,29.81,East,82,10.0,27.0,75,0.00,,,0.00,Wunderground v.1.15,2013-06-22 08:15:00,
2013-06-22 03:20:00,69.2,60.6,29.81,East,96,9.0,9.0,74,0.00,,,0.00,Wunderground v.1.15,2013-06-22 08:20:00,
2013-06-22 03:30:00,69.3,60.3,29.80,East,94,9.0,9.0,73,0.00,,,0.00,Wunderground v.1.15,2013-06-22 08:30:00,
2013-06-22 03:35:00,69.4,60.4,29.79,East,81,10.0,10.0,73,0.00,,,0.00,Wunderground v.1.15,2013-06-22 08:35:00,
2013-06-22 03:40:00,69.5,60.1,29.79,ESE,113,10.0,10.0,72,0.00,,,0.00,Wunderground v.1.15,2013-06-22 08:40:00,
2013-06-22 03:45:00,69.7,59.9,29.80,East,86,9.0,27.0,71,0.00,,,0.00,Wunderground v.1.15,2013-06-22 08:45:00,
2013-06-22 03:55:00,70.1,59.9,29.81,East,96,7.0,11.0,70,0.00,,,0.00,Wunderground v.1.15,2013-06-22 08:55:00,
2013-06-22 04:00:00,70.0,59.8,29.81,East,88,9.0,9.0,70,0.00,,,0.00,Wunderground v.1.15,2013-06-22 09:00:00,
2013-06-22 04:05:00,70.0,59.8,29.81,East,95,9.0,27.0,70,0.00,,,0.00,Wunderground v.1.15,2013-06-22 09:05:00,
2013-06-22 04:14:00,69.9,59.7,29.82,East,96,8.0,27.0,70,0.00,,,0.00,Wunderground v.1.15,2013-06-22 09:14:00,
2013-06-22 04:20:00,69.7,59.5,29.81,East,99,6.0,27.0,70,0.00,,,0.00,Wunderground v.1.15,2013-06-22 09:20:00,
2013-06-22 04:25:00,69.6,59.4,29.82,ESE,102,6.0,27.0,70,0.00,,,0.00,Wunderground v.1.15,2013-06-22 09:25:00,
2013-06-22 04:30:00,69.5,59.3,29.82,East,97,6.0,27.0,70,0.00,,,0.00,Wunderground v.1.15,2013-06-22 09:30:00,
2013-06-22 04:40:00,69.4,59.6,29.83,East,93,4.0,27.0,71,0.00,,,0.00,Wunderground v.1.15,2013-06-22 09:40:00,
2013-06-22 04:45:00,69.5,59.3,29.84,East,80,4.0,27.0,70,0.00,,,0.00,Wunderground v.1.15,2013-06-22 09:45:00,
2013-06-22 04:50:00,69.5,59.3,29.86,North,5,4.0,27.0,70,0.00,,,0.00,Wunderground v.1.15,2013-06-22 09:50:00,
2013-06-22 04:55:00,69.0,59.6,29.87,NW,322,6.0,27.0,72,0.00,,,0.00,Wunderground v.1.15,2013-06-22 09:55:00,
2013-06-22 05:05:00,69.2,60.2,29.88,NNE,14,9.0,27.0,73,0.00,,,0.00,Wunderground v.1.15,2013-06-22 10:05:00,
2013-06-22 05:10:00,68.9,60.6,29.88,NNE,25,8.0,8.0,75,0.00,,,0.00,Wunderground v.1.15,2013-06-22 10:10:00,
2013-06-22 05:15:00,68.4,60.9,29.88,NNE,24,8.0,11.0,77,0.00,,,0.00,Wunderground v.1.15,2013-06-22 10:15:00,
2013-06-22 05:25:00,68.2,61.1,29.88,NNE,15,9.0,27.0,78,0.00,,,0.00,Wunderground v.1.15,2013-06-22 10:25:00,
2013-06-22 05:30:00,68.1,61.0,29.88,NE,36,9.0,9.0,78,0.00,,,0.00,Wunderground v.1.15,2013-06-22 10:30:00,
2013-06-22 05:35:00,68.1,61.3,29.88,NNE,24,7.0,11.0,79,0.00,,,0.00,Wunderground v.1.15,2013-06-22 10:35:00,
2013-06-22 05:40:00,68.1,61.3,29.88,NNE,24,8.0,27.0,79,0.00,,,0.00,Wunderground v.1.15,2013-06-22 10:40:00,
2013-06-22 05:50:00,68.1,61.3,29.87,NNE,23,9.0,27.0,79,0.00,,,0.00,Wunderground v.1.15,2013-06-22 10:50:00,
2013-06-22 05:55:00,68.0,61.2,29.87,NE,51,10.0,27.0,79,0.00,,,0.00,Wunderground v.1.15,2013-06-22 10:55:00,
2013-06-22 06:00:00,68.0,61.2,29.87,NE,50,11.0,11.0,79,0.00,,,0.00,Wunderground v.1.15,2013-06-22 11:00:00,
2013-06-22 06:05:00,68.0,61.2,29.87,NE,39,11.0,27.0,79,0.00,,,0.00,Wunderground v.1.15,2013-06-22 11:05:00,
2013-06-22 06:15:00,68.0,61.2,29.87,ENE,65,10.0,27.0,79,0.00,,,0.00,Wunderground v.1.15,2013-06-22 11:15:00,
2013-06-22 06:20:00,68.0,61.2,29.88,NE,48,10.0,10.0,79,0.00,,,0.00,Wunderground v.1.15,2013-06-22 11:20:00,
2013-06-22 06:25:00,68.0,61.6,29.88,ENE,57,10.0,16.0,80,0.00,,,0.00,Wunderground v.1.15,2013-06-22 11:25:00,
2013-06-22 06:30:00,67.9,61.5,29.88,ENE,57,11.0,27.0,80,0.00,,,0.00,Wunderground v.1.15,2013-06-22 11:30:00,
2013-06-22 06:40:00,67.9,61.5,29.89,NE,53,11.0,27.0,80,0.00,,,0.00,Wunderground v.1.15,2013-06-22 11:40:00,
2013-06-22 06:45:00,68.1,61.7,29.89,NE,38,13.0,27.0,80,0.00,,,0.00,Wunderground v.1.15,2013-06-22 11:45:00,
2013-06-22 06:50:00,68.3,61.5,29.90,ENE,57,12.0,27.0,79,0.00,,,0.00,Wunderground v.1.15,2013-06-22 11:50:00,
2013-06-22 06:55:00,68.6,61.8,29.91,NNE,27,11.0,27.0,79,0.00,,,0.00,Wunderground v.1.15,2013-06-22 11:55:00,
2013-06-22 07:05:00,68.6,62.2,29.92,NNE,26,11.0,27.0,80,0.00,,,0.00,Wunderground v.1.15,2013-06-22 12:05:00,
2013-06-22 07:10:00,68.5,62.1,29.92,NNE,22,11.0,27.0,80,0.00,,,0.00,Wunderground v.1.15,2013-06-22 12:10:00,
2013-06-22 07:15:00,68.5,62.4,29.92,NE,49,11.0,27.0,81,0.00,,,0.00,Wunderground v.1.15,2013-06-22 12:15:00,
2013-06-22 07:20:00,68.4,62.3,29.92,NNE,14,13.0,13.0,81,0.00,,,0.00,Wunderground v.1.15,2013-06-22 12:20:00,
2013-06-22 07:30:00,68.6,62.5,29.91,NE,34,12.0,27.0,81,0.00,,,0.00,Wunderground v.1.15,2013-06-22 12:30:00,
2013-06-22 07:35:00,68.7,62.6,29.92,North,355,9.0,27.0,81,0.00,,,0.00,Wunderground v.1.15,2013-06-22 12:35:00,
2013-06-22 07:40:00,68.7,62.6,29.93,NNE,26,9.0,27.0,81,0.00,,,0.00,Wunderground v.1.15,2013-06-22 12:40:00,
2013-06-22 07:50:00,69.2,62.0,29.91,NE,51,12.0,27.0,78,0.00,,,0.00,Wunderground v.1.15,2013-06-22 12:50:00,
2013-06-22 07:55:00,69.2,62.0,29.91,NE,36,16.0,27.0,78,0.00,,,0.00,Wunderground v.1.15,2013-06-22 12:55:00,
2013-06-22 08:00:00,69.2,61.7,29.91,NE,36,16.0,16.0,77,0.00,,,0.00,Wunderground v.1.15,2013-06-22 13:00:00,
2013-06-22 08:05:00,69.1,61.9,29.91,East,81,16.0,27.0,78,0.00,,,0.00,Wunderground v.1.15,2013-06-22 13:05:00,
2013-06-22 08:15:00,68.8,62.4,29.87,ENE,74,14.0,27.0,80,0.00,,,0.00,Wunderground v.1.15,2013-06-22 13:15:00,
2013-06-22 08:20:00,68.7,62.6,29.86,East,83,14.0,14.0,81,0.00,,,0.00,Wunderground v.1.15,2013-06-22 13:20:00,
2013-06-22 08:25:00,68.6,62.5,29.88,East,86,14.0,27.0,81,0.00,,,0.00,Wunderground v.1.15,2013-06-22 13:25:00,
2013-06-22 08:30:00,68.6,62.5,29.87,East,80,12.0,12.0,81,0.00,,,0.00,Wunderground v.1.15,2013-06-22 13:30:00,
2013-06-22 08:40:00,68.6,62.5,29.83,East,93,18.0,27.0,81,0.00,,,0.00,Wunderground v.1.15,2013-06-22 13:40:00,
2013-06-22 08:45:00,68.5,62.4,29.81,East,98,20.0,27.0,81,0.00,,,0.00,Wunderground v.1.15,2013-06-22 13:45:00,
2013-06-22 08:50:00,68.2,62.5,29.80,ESE,110,21.0,21.0,82,0.00,,,0.00,Wunderground v.1.15,2013-06-22 13:50:00,
2013-06-22 09:00:00,68.2,62.5,29.81,NE,45,19.0,19.0,82,0.00,,,0.00,Wunderground v.1.15,2013-06-22 14:00:00,
2013-06-22 09:05:00,68.4,62.3,29.82,ENE,63,15.0,27.0,81,0.00,,,0.00,Wunderground v.1.15,2013-06-22 14:05:00,
2013-06-22 09:10:00,68.7,62.3,29.83,ENE,71,12.0,12.0,80,0.00,,,0.00,Wunderground v.1.15,2013-06-22 14:10:00,
2013-06-22 09:15:00,69.1,61.9,29.84,East,81,12.0,27.0,78,0.00,,,0.00,Wunderground v.1.15,2013-06-22 14:15:00,
2013-06-22 09:20:00,69.0,61.9,29.86,ENE,76,12.0,12.0,78,0.00,,,0.00,Wunderground v.1.15,2013-06-22 14:20:00,
2013-06-22 09:30:00,69.0,61.9,29.86,East,80,12.0,12.0,78,0.00,,,0.00,Wunderground v.1.15,2013-06-22 14:30:00,
2013-06-22 09:35:00,69.1,61.9,29.86,East,87,13.0,17.0,78,0.00,,,0.00,Wunderground v.1.15,2013-06-22 14:35:00,
2013-06-22 09:40:00,69.3,62.1,29.86,East,93,13.0,27.0,78,0.00,,,0.00,Wunderground v.1.15,2013-06-22 14:40:00,
2013-06-22 09:45:00,69.3,62.1,29.86,East,95,13.0,27.0,78,0.00,,,0.00,Wunderground v.1.15,2013-06-22 14:45:00,
2013-06-22 09:55:00,69.2,62.0,29.85,ESE,102,12.0,27.0,78,0.00,,,0.00,Wunderground v.1.15,2013-06-22 14:55:00,
2013-06-22 10:00:00,69.3,62.1,29.84,East,86,12.0,27.0,78,0.00,,,0.00,Wunderground v.1.15,2013-06-22 15:00:00,
2013-06-22 10:05:00,69.5,62.3,29.83,East,98,13.0,27.0,78,0.00,,,0.00,Wunderground v.1.15,2013-06-22 15:05:00,
2013-06-22 10:15:00,70.0,62.5,29.83,East,99,12.0,27.0,77,0.00,,,0.00,Wunderground v.1.15,2013-06-22 15:15:00,
2013-06-22 10:20:00,70.3,62.4,29.82,East,79,14.0,27.0,76,0.00,,,0.00,Wunderground v.1.15,2013-06-22 15:20:00,
2013-06-22 10:25:00,70.3,62.4,29.81,ESE,107,14.0,27.0,76,0.00,,,0.00,Wunderground v.1.15,2013-06-22 15:25:00,
2013-06-22 10:30:00,70.4,62.5,29.81,East,80,13.0,13.0,76,0.00,,,0.00,Wunderground v.1.15,2013-06-22 15:30:00,
2013-06-22 10:40:00,70.6,62.7,29.81,ESE,104,13.0,27.0,76,0.00,,,0.00,Wunderground v.1.15,2013-06-22 15:40:00,
2013-06-22 10:45:00,70.7,62.8,29.81,East,99,12.0,27.0,76,0.00,,,0.00,Wunderground v.1.15,2013-06-22 15:45:00,
2013-06-22 10:50:00,71.0,63.1,29.81,ESE,107,10.0,10.0,76,0.00,,,0.00,Wunderground v.1.15,2013-06-22 15:50:00,
2013-06-22 10:55:00,71.1,63.1,29.80,ESE,106,9.0,11.0,76,0.00,,,0.00,Wunderground v.1.15,2013-06-22 15:55:00,
2013-06-22 11:05:00,71.9,63.5,29.79,East,87,9.0,27.0,75,0.00,,,0.00,Wunderground v.1.15,2013-06-22 16:05:00,
2013-06-22 11:10:00,72.4,63.6,29.79,East,98,9.0,9.0,74,0.00,,,0.00,Wunderground v.1.15,2013-06-22 16:10:00,
2013-06-22 11:15:00,72.8,64.0,29.79,ESE,103,9.0,27.0,74,0.00,,,0.00,Wunderground v.1.15,2013-06-22 16:15:00,
2013-06-22 11:25:00,73.5,64.7,29.79,East,97,7.0,9.0,74,0.00,,,0.00,Wunderground v.1.15,2013-06-22 16:25:00,
2013-06-22 11:30:00,73.8,65.0,29.79,ENE,77,6.0,6.0,74,0.00,,,0.00,Wunderground v.1.15,2013-06-22 16:30:00,
2013-06-22 11:35:00,74.0,64.4,29.80,East,98,5.0,27.0,72,0.00,,,0.00,Wunderground v.1.15,2013-06-22 16:35:00,
2013-06-22 11:40:00,74.2,64.6,29.80,ESE,105,5.0,5.0,72,0.00,,,0.00,Wunderground v.1.15,2013-06-22 16:40:00,
2013-06-22 11:50:00,74.7,65.1,29.80,ESE,119,5.0,27.0,72,0.00,,,0.00,Wunderground v.1.15,2013-06-22 16:50:00,
2013-06-22 11:55:00,74.9,64.9,29.80,SE,134,5.0,27.0,71,0.00,,,0.00,Wunderground v.1.15,2013-06-22 16:55:00,
2013-06-22 12:00:00,75.1,64.6,29.80,SE,144,5.0,27.0,70,0.00,,,0.00,Wunderground v.1.15,2013-06-22 17:00:00,
2013-06-22 12:05:00,75.3,64.4,29.80,SE,145,7.0,27.0,69,0.00,,,0.00,Wunderground v.1.15,2013-06-22 17:05:00,
2013-06-22 12:15:00,75.7,64.4,29.79,SE,142,6.0,27.0,68,0.00,,,0.00,Wunderground v.1.15,2013-06-22 17:15:00,
2013-06-22 12:20:00,75.8,64.9,29.79,SE,142,6.0,6.0,69,0.00,,,0.00,Wunderground v.1.15,2013-06-22 17:20:00,
2013-06-22 12:25:00,76.3,65.4,29.79,SSE,154,5.0,10.0,69,0.00,,,0.00,Wunderground v.1.15,2013-06-22 17:25:00,
2013-06-22 12:30:00,77.2,65.4,29.78,SE,143,7.0,27.0,67,0.00,,,0.00,Wunderground v.1.15,2013-06-22 17:30:00,
2013-06-22 12:40:00,78.2,66.3,29.78,SE,143,11.0,27.0,67,0.00,,,0.00,Wunderground v.1.15,2013-06-22 17:40:00,
2013-06-22 12:45:00,79.3,67.0,29.77,SE,140,14.0,27.0,66,0.00,,,0.00,Wunderground v.1.15,2013-06-22 17:45:00,
2013-06-22 12:50:00,79.7,66.9,29.78,SSE,152,16.0,27.0,65,0.00,,,0.00,Wunderground v.1.15,2013-06-22 17:50:00,
2013-06-22 12:55:00,80.1,67.7,29.78,SSE,148,15.0,27.0,66,0.00,,,0.00,Wunderground v.1.15,2013-06-22 17:55:00,
2013-06-22 13:05:00,80.6,67.7,29.77,SSE,163,15.0,16.0,65,0.00,,,0.00,Wunderground v.1.15,2013-06-22 18:05:00,
2013-06-22 13:10:00,80.8,68.4,29.78,SSE,155,17.0,27.0,66,0.00,,,0.00,Wunderground v.1.15,2013-06-22 18:10:00,
2013-06-22 13:15:00,80.9,68.0,29.77,SSE,155,19.0,27.0,65,0.00,,,0.00,Wunderground v.1.15,2013-06-22 18:15:00,
2013-06-22 13:20:00,81.9,68.5,29.77,SSE,149,19.0,27.0,64,0.00,,,0.00,Wunderground v.1.15,2013-06-22 18:20:00,
2013-06-22 13:30:00,83.2,69.3,29.77,SSE,151,18.0,27.0,63,0.00,,,0.00,Wunderground v.1.15,2013-06-22 18:30:00,
2013-06-22 13:35:00,83.4,69.0,29.77,SE,141,19.0,27.0,62,0.00,,,0.00,Wunderground v.1.15,2013-06-22 18:35:00,
2013-06-22 13:45:00,84.6,68.2,29.76,SSE,155,19.0,27.0,58,0.00,,,0.00,Wunderground v.1.15,2013-06-22 18:45:00,
2013-06-22 13:50:00,84.0,68.6,29.76,SE,144,20.0,20.0,60,0.00,,,0.00,Wunderground v.1.15,2013-06-22 18:50:00,
2013-06-22 13:55:00,84.1,68.7,29.76,SSE,148,22.0,22.0,60,0.00,,,0.00,Wunderground v.1.15,2013-06-22 18:55:00,
2013-06-22 14:00:00,84.9,68.5,29.76,SSE,157,22.0,31.0,58,0.00,,,0.00,Wunderground v.1.15,2013-06-22 19:00:00,
2013-06-22 14:10:00,85.2,68.2,29.75,SSE,167,24.0,24.0,57,0.00,,,0.00,Wunderground v.1.15,2013-06-22 19:10:00,
2013-06-22 14:15:00,85.4,68.4,29.75,SSE,161,24.0,27.0,57,0.00,,,0.00,Wunderground v.1.15,2013-06-22 19:15:00,
2013-06-22 14:20:00,86.0,69.0,29.75,SSE,162,22.0,27.0,57,0.00,,,0.00,Wunderground v.1.15,2013-06-22 19:20:00,
2013-06-22 14:25:00,85.9,68.9,29.75,SSE,167,21.0,27.0,57,0.00,,,0.00,Wunderground v.1.15,2013-06-22 19:25:00,
2013-06-22 14:35:00,86.3,68.2,29.75,SSE,152,19.0,27.0,55,0.00,,,0.00,Wunderground v.1.15,2013-06-22 19:35:00,
2013-06-22 14:40:00,86.5,68.9,29.75,South,176,19.0,19.0,56,0.00,,,0.00,Wunderground v.1.15,2013-06-22 19:40:00,
2013-06-22 14:45:00,87.2,69.1,29.75,South,184,18.0,22.0,55,0.00,,,0.00,Wunderground v.1.15,2013-06-22 19:45:00,
2013-06-22 14:55:00,87.5,67.1,29.75,SSE,168,21.0,27.0,51,0.00,,,0.00,Wunderground v.1.15,2013-06-22 19:55:00,
2013-06-22 15:00:00,88.6,67.6,29.75,SSE,153,20.0,27.0,50,0.00,,,0.00,Wunderground v.1.15,2013-06-22 20:00:00,
2013-06-22 15:05:00,88.4,68.0,29.74,South,170,20.0,27.0,51,0.00,,,0.00,Wunderground v.1.15,2013-06-22 20:05:00,
2013-06-22 15:10:00,88.6,67.0,29.74,SSE,158,20.0,27.0,49,0.00,,,0.00,Wunderground v.1.15,2013-06-22 20:10:00,
2013-06-22 15:20:00,88.8,66.0,29.74,SSE,167,20.0,20.0,47,0.00,,,0.00,Wunderground v.1.15,2013-06-22 20:20:00,
2013-06-22 15:25:00,89.0,66.8,29.74,SSE,162,21.0,21.0,48,0.00,,,0.00,Wunderground v.1.15,2013-06-22 20:25:00,
2013-06-22 15:30:00,89.2,66.3,29.73,SSE,167,18.0,27.0,47,0.00,,,0.00,Wunderground v.1.15,2013-06-22 20:30:00,
2013-06-22 15:40:00,89.2,65.7,29.73,SSE,165,21.0,21.0,46,0.00,,,0.00,Wunderground v.1.15,2013-06-22 20:40:00,
2013-06-22 15:45:00,89.5,66.6,29.73,SSE,163,21.0,27.0,47,0.00,,,0.00,Wunderground v.1.15,2013-06-22 20:45:00,
2013-06-22 15:50:00,89.4,66.5,29.72,SSE,149,21.0,21.0,47,0.00,,,0.00,Wunderground v.1.15,2013-06-22 20:50:00,
2013-06-22 15:55:00,89.3,66.4,29.73,South,170,20.0,27.0,47,0.00,,,0.00,Wunderground v.1.15,2013-06-22 20:55:00,
2013-06-22 16:05:00,89.0,66.8,29.72,South,178,18.0,27.0,48,0.00,,,0.00,Wunderground v.1.15,2013-06-22 21:05:00,
2013-06-22 16:10:00,89.7,67.4,29.72,South,173,18.0,18.0,48,0.00,,,0.00,Wunderground v.1.15,2013-06-22 21:10:00,
2013-06-22 16:15:00,89.5,66.6,29.72,South,185,19.0,19.0,47,0.00,,,0.00,Wunderground v.1.15,2013-06-22 21:15:00,
2013-06-22 16:24:00,89.6,67.3,29.71,South,180,17.0,27.0,48,0.00,,,0.00,Wunderground v.1.15,2013-06-22 21:24:00,
2013-06-22 16:30:00,89.8,67.5,29.71,SSE,165,17.0,27.0,48,0.00,,,0.00,Wunderground v.1.15,2013-06-22 21:30:00,
2013-06-22 16:35:00,89.8,67.5,29.71,SSE,167,17.0,27.0,48,0.00,,,0.00,Wunderground v.1.15,2013-06-22 21:35:00,
2013-06-22 16:40:00,90.0,67.7,29.71,SSE,167,18.0,27.0,48,0.00,,,0.00,Wunderground v.1.15,2013-06-22 21:40:00,
2013-06-22 16:50:00,89.7,67.4,29.71,SSE,156,18.0,27.0,48,0.00,,,0.00,Wunderground v.1.15,2013-06-22 21:50:00,
2013-06-22 16:55:00,89.5,66.6,29.70,SSE,168,16.0,27.0,47,0.00,,,0.00,Wunderground v.1.15,2013-06-22 21:55:00,
2013-06-22 17:00:00,89.3,67.0,29.70,South,169,18.0,18.0,48,0.00,,,0.00,Wunderground v.1.15,2013-06-22 22:00:00,
2013-06-22 17:05:00,89.2,66.3,29.70,South,178,18.0,22.0,47,0.00,,,0.00,Wunderground v.1.15,2013-06-22 22:05:00,
2013-06-22 17:15:00,89.1,66.2,29.70,SSE,167,19.0,27.0,47,0.00,,,0.00,Wunderground v.1.15,2013-06-22 22:15:00,
2013-06-22 17:20:00,89.0,66.2,29.70,South,169,19.0,19.0,47,0.00,,,0.00,Wunderground v.1.15,2013-06-22 22:20:00,
2013-06-22 17:25:00,88.8,67.8,29.70,SSE,149,17.0,27.0,50,0.00,,,0.00,Wunderground v.1.15,2013-06-22 22:25:00,
2013-06-22 17:30:00,88.6,67.6,29.69,SSE,161,16.0,16.0,50,0.00,,,0.00,Wunderground v.1.15,2013-06-22 22:30:00,
2013-06-22 17:40:00,89.1,66.9,29.69,SSE,166,17.0,27.0,48,0.00,,,0.00,Wunderground v.1.15,2013-06-22 22:40:00,
2013-06-22 17:45:00,89.2,66.9,29.69,South,169,18.0,27.0,48,0.00,,,0.00,Wunderground v.1.15,2013-06-22 22:45:00,
2013-06-22 17:50:00,89.3,66.4,29.69,SSE,157,19.0,27.0,47,0.00,,,0.00,Wunderground v.1.15,2013-06-22 22:50:00,
2013-06-22 18:00:00,89.2,67.5,29.68,SSE,157,16.0,27.0,49,0.00,,,0.00,Wunderground v.1.15,2013-06-22 23:00:00,
2013-06-22 18:05:00,90.0,66.4,29.68,SSE,158,18.0,27.0,46,0.00,,,0.00,Wunderground v.1.15,2013-06-22 23:05:00,
2013-06-22 18:10:00,90.5,66.3,29.68,SSE,167,18.0,18.0,45,0.00,,,0.00,Wunderground v.1.15,2013-06-22 23:10:00,
2013-06-22 18:15:00,90.8,65.9,29.68,South,174,17.0,27.0,44,0.00,,,0.00,Wunderground v.1.15,2013-06-22 23:15:00,
2013-06-22 18:25:00,90.8,65.9,29.67,SSE,162,19.0,27.0,44,0.00,,,0.00,Wunderground v.1.15,2013-06-22 23:25:00,
2013-06-22 18:30:00,90.8,65.9,29.67,SSE,157,22.0,22.0,44,0.00,,,0.00,Wunderground v.1.15,2013-06-22 23:30:00,
2013-06-22 18:35:00,90.8,66.5,29.67,SSE,150,22.0,25.0,45,0.00,,,0.00,Wunderground v.1.15,2013-06-22 23:35:00,
2013-06-22 18:45:00,90.6,67.0,29.67,SSE,153,20.0,27.0,46,0.00,,,0.00,Wunderground v.1.15,2013-06-22 23:45:00,
2013-06-22 18:50:00,90.5,66.3,29.66,SSE,163,19.0,19.0,45,0.00,,,0.00,Wunderground v.1.15,2013-06-22 23:50:00,
2013-06-22 18:55:00,90.3,66.7,29.67,SSE,162,20.0,23.0,46,0.00,,,0.00,Wunderground v.1.15,2013-06-22 23:55:00,
2013-06-22 19:00:00,90.2,66.0,29.67,SSE,156,21.0,28.0,45,0.00,,,0.00,Wunderground v.1.15,2013-06-23 00:00:00,
2013-06-22 19:10:00,90.0,66.4,29.67,SSE,155,21.0,27.0,46,0.00,,,0.00,Wunderground v.1.15,2013-06-23 00:10:00,
2013-06-22 19:15:00,90.0,65.8,29.67,SSE,150,21.0,27.0,45,0.00,,,0.00,Wunderground v.1.15,2013-06-23 00:15:00,
2013-06-22 19:20:00,90.0,65.8,29.67,SSE,153,22.0,22.0,45,0.00,,,0.00,Wunderground v.1.15,2013-06-23 00:20:00,
2013-06-22 19:25:00,89.8,65.6,29.67,SSE,150,21.0,27.0,45,0.00,,,0.00,Wunderground v.1.15,2013-06-23 00:25:00,
2013-06-22 19:35:00,89.2,65.7,29.67,SSE,147,21.0,27.0,46,0.00,,,0.00,Wunderground v.1.15,2013-06-23 00:35:00,
2013-06-22 19:40:00,89.0,65.5,29.67,SSE,165,19.0,19.0,46,0.00,,,0.00,Wunderground v.1.15,2013-06-23 00:40:00,
2013-06-22 19:45:00,88.8,65.4,29.67,SSE,161,18.0,20.0,46,0.00,,,0.00,Wunderground v.1.15,2013-06-23 00:45:00,
2013-06-22 19:55:00,88.7,65.3,29.67,SSE,167,19.0,27.0,46,0.00,,,0.00,Wunderground v.1.15,2013-06-23 00:55:00,
2013-06-22 20:00:00,88.4,65.6,29.67,SE,144,19.0,27.0,47,0.00,,,0.00,Wunderground v.1.15,2013-06-23 01:00:00,
2013-06-22 20:05:00,88.2,65.4,29.68,SSE,150,19.0,27.0,47,0.00,,,0.00,Wunderground v.1.15,2013-06-23 01:05:00,
2013-06-22 20:10:00,87.9,65.2,29.67,SSE,153,19.0,19.0,47,0.00,,,0.00,Wunderground v.1.15,2013-06-23 01:10:00,
2013-06-22 20:20:00,87.5,64.8,29.67,SSE,157,19.0,27.0,47,0.00,,,0.00,Wunderground v.1.15,2013-06-23 01:20:00,
2013-06-22 20:25:00,87.4,64.7,29.67,SSE,152,20.0,27.0,47,0.00,,,0.00,Wunderground v.1.15,2013-06-23 01:25:00,
2013-06-22 20:30:00,87.1,64.4,29.67,SSE,147,20.0,20.0,47,0.00,,,0.00,Wunderground v.1.15,2013-06-23 01:30:00,
2013-06-22 20:35:00,87.0,64.9,29.67,SSE,150,20.0,27.0,48,0.00,,,0.00,Wunderground v.1.15,2013-06-23 01:35:00,
2013-06-22 20:40:00,86.9,64.2,29.66,SSE,147,21.0,27.0,47,0.00,,,0.00,Wunderground v.1.15,2013-06-23 01:40:00,
2013-06-22 20:50:00,86.5,64.5,29.67,SSE,161,19.0,19.0,48,0.00,,,0.00,Wunderground v.1.15,2013-06-23 01:50:00,
2013-06-22 20:55:00,86.3,64.3,29.67,SSE,156,20.0,20.0,48,0.00,,,0.00,Wunderground v.1.15,2013-06-23 01:55:00,
2013-06-22 21:00:00,85.9,64.5,29.67,SE,143,19.0,27.0,49,0.00,,,0.00,Wunderground v.1.15,2013-06-23 02:00:00,
2013-06-22 21:10:00,85.6,64.8,29.68,SSE,155,19.0,27.0,50,0.00,,,0.00,Wunderground v.1.15,2013-06-23 02:10:00,
2013-06-22 21:15:00,85.5,64.7,29.68,SSE,150,18.0,27.0,50,0.00,,,0.00,Wunderground v.1.15,2013-06-23 02:15:00,
2013-06-22 21:20:00,85.2,65.0,29.69,SE,139,17.0,17.0,51,0.00,,,0.00,Wunderground v.1.15,2013-06-23 02:20:00,
2013-06-22 21:25:00,84.7,65.1,29.69,SSE,147,15.0,27.0,52,0.00,,,0.00,Wunderground v.1.15,2013-06-23 02:25:00,
2013-06-22 21:35:00,83.4,66.1,29.69,SE,142,14.0,16.0,56,0.00,,,0.00,Wunderground v.1.15,2013-06-23 02:35:00,
2013-06-22 21:40:00,82.9,67.1,29.69,SE,144,16.0,27.0,59,0.00,,,0.00,Wunderground v.1.15,2013-06-23 02:40:00,
2013-06-22 21:45:00,82.9,67.1,29.70,SSE,150,16.0,27.0,59,0.00,,,0.00,Wunderground v.1.15,2013-06-23 02:45:00,
2013-06-22 21:50:00,82.9,66.6,29.70,SE,146,17.0,17.0,58,0.00,,,0.00,Wunderground v.1.15,2013-06-23 02:50:00,
2013-06-22 22:00:00,82.1,66.4,29.71,SSE,153,14.0,14.0,59,0.00,,,0.00,Wunderground v.1.15,2013-06-23 03:00:00,
2013-06-22 22:05:00,81.8,66.6,29.71,SSE,148,14.0,18.0,60,0.00,,,0.00,Wunderground v.1.15,2013-06-23 03:05:00,
2013-06-22 22:10:00,81.5,66.3,29.71,SE,144,15.0,27.0,60,0.00,,,0.00,Wunderground v.1.15,2013-06-23 03:10:00,
2013-06-22 22:20:00,81.2,66.5,29.72,SE,144,16.0,27.0,61,0.00,,,0.00,Wunderground v.1.15,2013-06-23 03:20:00,
2013-06-22 22:25:00,81.1,65.9,29.72,SSE,157,16.0,27.0,60,0.00,,,0.00,Wunderground v.1.15,2013-06-23 03:25:00,
2013-06-22 22:30:00,81.4,66.2,29.72,SE,137,16.0,27.0,60,0.00,,,0.00,Wunderground v.1.15,2013-06-23 03:30:00,
2013-06-22 22:35:00,81.4,65.7,29.72,SSE,148,18.0,27.0,59,0.00,,,0.00,Wunderground v.1.15,2013-06-23 03:35:00,
2013-06-22 22:45:00,81.3,65.6,29.72,SSE,150,18.0,27.0,59,0.00,,,0.00,Wunderground v.1.15,2013-06-23 03:45:00,
2013-06-22 22:50:00,81.0,65.3,29.72,SE,144,17.0,27.0,59,0.00,,,0.00,Wunderground v.1.15,2013-06-23 03:50:00,
2013-06-22 22:55:00,80.8,65.6,29.72,SE,140,17.0,27.0,60,0.00,,,0.00,Wunderground v.1.15,2013-06-23 03:55:00,
2013-06-22 23:05:00,80.4,65.7,29.72,SE,142,17.0,27.0,61,0.00,,,0.00,Wunderground v.1.15,2013-06-23 04:05:00,
2013-06-22 23:10:00,80.2,65.5,29.72,SE,142,17.0,27.0,61,0.00,,,0.00,Wunderground v.1.15,2013-06-23 04:10:00,
2013-06-22 23:15:00,80.0,65.8,29.71,SE,144,17.0,27.0,62,0.00,,,0.00,Wunderground v.1.15,2013-06-23 04:15:00,
2013-06-22 23:20:00,79.6,65.9,29.71,SSE,160,17.0,27.0,63,0.00,,,0.00,Wunderground v.1.15,2013-06-23 04:20:00,
2013-06-22 23:30:00,79.2,66.0,29.71,SSE,155,18.0,18.0,64,0.00,,,0.00,Wunderground v.1.15,2013-06-23 04:30:00,
2013-06-22 23:35:00,79.0,65.8,29.71,SE,146,18.0,27.0,64,0.00,,,0.00,Wunderground v.1.15,2013-06-23 04:35:00,
2013-06-22 23:40:00,78.9,65.7,29.70,SE,146,18.0,27.0,64,0.00,,,0.00,Wunderground v.1.15,2013-06-23 04:40:00,
2013-06-22 23:45:00,78.7,65.9,29.70,SSE,148,19.0,27.0,65,0.00,,,0.00,Wunderground v.1.15,2013-06-23 04:45:00,
2013-06-22 23:55:00,78.5,65.8,29.69,SSE,151,20.0,27.0,65,0.00,,,0.00,Wunderground v.1.15,2013-06-23 04:55:00,